createdAt,value
2022-09-21T00:01:25.539Z,13.63
2022-09-21T00:03:55.479Z,13.54
2022-09-21T00:06:23.988Z,13.45
2022-09-21T00:08:52.079Z,13.44
2022-09-21T00:11:25.210Z,13.47
2022-09-21T00:13:55.177Z,13.53
2022-09-21T00:16:23.026Z,13.52
2022-09-21T00:18:50.251Z,13.53
2022-09-21T00:21:18.331Z,13.40
2022-09-21T00:23:46.010Z,13.43
2022-09-21T00:26:18.702Z,13.43
2022-09-21T00:28:46.224Z,13.38
2022-09-21T00:31:17.790Z,13.36
2022-09-21T00:33:45.039Z,13.41
2022-09-21T00:36:16.737Z,13.37
2022-09-21T00:38:46.134Z,13.32
2022-09-21T00:41:13.537Z,13.39
2022-09-21T00:43:46.976Z,13.43
2022-09-21T00:46:31.018Z,13.36
2022-09-21T00:48:58.825Z,13.37
2022-09-21T00:51:26.232Z,13.40
2022-09-21T00:53:58.241Z,13.39
2022-09-21T00:56:26.286Z,13.30
2022-09-21T00:58:55.307Z,13.26
2022-09-21T01:01:24.711Z,13.29
2022-09-21T01:03:53.676Z,13.30
2022-09-21T01:06:21.775Z,13.22
2022-09-21T01:08:54.019Z,13.08
2022-09-21T01:11:53.529Z,13.04
2022-09-21T01:14:40.801Z,12.99
2022-09-21T01:17:45.541Z,13.08
2022-09-21T01:20:26.251Z,13.07
2022-09-21T01:23:05.166Z,13.15
2022-09-21T01:25:50.943Z,13.18
2022-09-21T01:28:36.770Z,13.01
2022-09-21T01:31:07.335Z,13.03
2022-09-21T01:33:45.815Z,13.04
2022-09-21T01:36:19.278Z,13.04
2022-09-21T01:38:50.497Z,12.94
2022-09-21T01:41:21.695Z,12.96
2022-09-21T01:43:55.707Z,12.99
2022-09-21T01:46:29.023Z,12.89
2022-09-21T01:49:01.165Z,12.82
2022-09-21T01:51:29.252Z,12.92
2022-09-21T01:54:02.956Z,12.89
2022-09-21T01:56:55.847Z,12.82
2022-09-21T01:59:32.719Z,12.75
2022-09-21T02:02:12.472Z,12.61
2022-09-21T02:04:39.829Z,12.68
2022-09-21T02:07:08.128Z,12.70
2022-09-21T02:09:37.370Z,12.74
2022-09-21T02:12:05.632Z,12.85
2022-09-21T02:14:34.595Z,12.93
2022-09-21T02:17:26.564Z,12.89
2022-09-21T02:19:57.810Z,12.72
2022-09-21T02:22:46.386Z,12.69
2022-09-21T02:25:18.220Z,12.75
2022-09-21T02:27:56.742Z,12.79
2022-09-21T02:30:25.766Z,12.87
2022-09-21T02:33:19.926Z,12.87
2022-09-21T02:35:54.259Z,12.94
2022-09-21T02:38:47.341Z,12.91
2022-09-21T02:41:20.082Z,12.93
2022-09-21T02:44:02.383Z,13.01
2022-09-21T02:46:39.083Z,12.77
2022-09-21T02:49:12.676Z,12.82
2022-09-21T02:51:48.449Z,12.84
2022-09-21T02:54:20.006Z,12.93
2022-09-21T02:56:49.169Z,12.73
2022-09-21T02:59:16.826Z,12.84
2022-09-21T03:01:44.422Z,12.95
2022-09-21T03:04:11.720Z,13.02
2022-09-21T03:06:38.968Z,12.94
2022-09-21T03:09:06.092Z,12.88
2022-09-21T03:11:34.007Z,12.83
2022-09-21T03:14:01.058Z,12.62
2022-09-21T03:16:29.177Z,12.53
2022-09-21T03:18:56.266Z,12.48
2022-09-21T03:21:23.412Z,12.45
2022-09-21T03:23:50.404Z,12.30
2022-09-21T03:26:17.668Z,12.35
2022-09-21T03:28:45.258Z,12.39
2022-09-21T03:31:13.039Z,12.37
2022-09-21T03:33:40.268Z,12.42
2022-09-21T03:36:08.186Z,12.38
2022-09-21T03:38:36.143Z,12.36
2022-09-21T03:41:03.722Z,12.47
2022-09-21T03:43:31.458Z,12.33
2022-09-21T03:45:58.788Z,12.28
2022-09-21T03:48:25.959Z,12.34
2022-09-21T03:50:53.167Z,12.30
2022-09-21T03:53:20.227Z,12.31
2022-09-21T03:55:47.249Z,12.21
2022-09-21T03:58:14.780Z,12.11
2022-09-21T04:00:42.976Z,12.00
2022-09-21T04:03:10.131Z,12.03
2022-09-21T04:05:39.284Z,12.06
2022-09-21T04:08:07.232Z,12.04
2022-09-21T04:10:34.440Z,11.98
2022-09-21T04:13:02.843Z,12.06
2022-09-21T04:15:30.711Z,11.99
2022-09-21T04:17:58.040Z,11.94
2022-09-21T04:20:25.353Z,11.82
2022-09-21T04:22:52.729Z,11.80
2022-09-21T04:25:20.560Z,11.56
2022-09-21T04:27:47.763Z,11.76
2022-09-21T04:30:16.460Z,11.82
2022-09-21T04:32:44.359Z,11.78
2022-09-21T04:35:11.536Z,11.70
2022-09-21T04:37:38.803Z,11.60
2022-09-21T04:40:06.950Z,11.55
2022-09-21T04:42:34.275Z,12.41
2022-09-21T04:45:01.592Z,13.69
2022-09-21T04:47:32.183Z,14.11
2022-09-21T04:49:59.286Z,13.73
2022-09-21T04:52:26.528Z,13.26
2022-09-21T04:54:53.614Z,12.89
2022-09-21T04:57:20.885Z,12.40
2022-09-21T04:59:48.091Z,12.44
2022-09-21T05:02:15.289Z,12.32
2022-09-21T05:04:42.400Z,12.09
2022-09-21T05:07:09.568Z,12.04
2022-09-21T05:09:55.206Z,12.10
2022-09-21T05:12:22.554Z,11.98
2022-09-21T05:14:49.678Z,12.09
2022-09-21T05:17:17.053Z,12.08
2022-09-21T05:19:44.171Z,12.02
2022-09-21T05:22:11.319Z,12.03
2022-09-21T05:24:39.140Z,12.19
2022-09-21T05:27:06.387Z,12.18
2022-09-21T05:29:33.820Z,12.19
2022-09-21T05:32:22.343Z,12.30
2022-09-21T05:34:55.169Z,12.32
2022-09-21T05:37:56.264Z,12.42
2022-09-21T05:40:23.794Z,12.44
2022-09-21T05:42:51.385Z,12.54
2022-09-21T05:45:21.173Z,12.54
2022-09-21T05:48:01.952Z,12.62
2022-09-21T05:50:36.682Z,12.66
2022-09-21T05:53:27.730Z,12.77
2022-09-21T05:56:04.383Z,12.84
2022-09-21T05:58:49.947Z,12.96
2022-09-21T06:01:30.294Z,12.79
2022-09-21T06:03:59.803Z,13.07
2022-09-21T06:06:26.854Z,13.07
2022-09-21T06:08:53.943Z,13.11
2022-09-21T06:11:22.165Z,13.25
2022-09-21T06:13:49.224Z,13.29
2022-09-21T06:16:16.323Z,13.44
2022-09-21T06:18:43.505Z,13.55
2022-09-21T06:21:10.687Z,13.64
2022-09-21T06:23:37.884Z,13.76
2022-09-21T06:26:05.297Z,13.87
2022-09-21T06:28:32.526Z,14.03
2022-09-21T06:30:59.738Z,14.13
2022-09-21T06:33:26.847Z,14.20
2022-09-21T06:35:58.985Z,14.19
2022-09-21T06:38:28.473Z,14.14
2022-09-21T06:40:56.082Z,14.15
2022-09-21T06:43:23.316Z,14.20
2022-09-21T06:45:55.589Z,14.19
2022-09-21T06:48:23.850Z,14.21
2022-09-21T06:50:51.607Z,14.30
2022-09-21T06:53:18.778Z,14.35
2022-09-21T06:55:45.901Z,14.51
2022-09-21T06:58:12.977Z,14.55
2022-09-21T07:00:40.115Z,14.59
2022-09-21T07:03:11.626Z,14.67
2022-09-21T07:05:39.264Z,14.86
2022-09-21T07:08:06.937Z,15.04
2022-09-21T07:10:54.261Z,15.20
2022-09-21T07:13:21.351Z,15.19
2022-09-21T07:15:53.173Z,15.26
2022-09-21T07:18:21.404Z,15.47
2022-09-21T07:20:49.299Z,15.53
2022-09-21T07:23:19.298Z,15.68
2022-09-21T07:25:52.616Z,15.71
2022-09-21T07:28:20.152Z,15.68
2022-09-21T07:30:47.407Z,15.66
2022-09-21T07:33:14.507Z,15.69
2022-09-21T07:35:50.948Z,15.66
2022-09-21T07:38:18.070Z,15.73
2022-09-21T07:40:45.231Z,15.73
2022-09-21T07:43:12.373Z,15.76
2022-09-21T07:45:39.542Z,15.78
2022-09-21T07:48:09.152Z,15.86
2022-09-21T07:50:36.212Z,16.07
2022-09-21T07:53:03.752Z,16.14
2022-09-21T07:55:31.079Z,16.18
2022-09-21T07:58:16.787Z,16.15
2022-09-21T08:00:44.108Z,16.19
2022-09-21T08:03:11.220Z,16.09
2022-09-21T08:05:38.347Z,16.02
2022-09-21T08:08:05.433Z,16.10
2022-09-21T08:10:33.069Z,16.24
2022-09-21T08:13:00.171Z,16.46
2022-09-21T08:15:47.569Z,16.57
2022-09-21T08:18:14.819Z,16.80
2022-09-21T08:20:42.373Z,16.93
2022-09-21T08:23:09.961Z,16.89
2022-09-21T08:25:37.100Z,17.14
2022-09-21T08:28:08.826Z,17.13
2022-09-21T08:30:36.887Z,17.02
2022-09-21T08:33:04.076Z,17.25
2022-09-21T08:35:31.222Z,17.24
2022-09-21T08:37:58.495Z,16.81
2022-09-21T08:40:25.903Z,16.80
2022-09-21T08:42:59.169Z,16.77
2022-09-21T08:45:35.845Z,16.97
2022-09-21T08:48:08.672Z,17.24
2022-09-21T08:50:47.572Z,17.47
2022-09-21T08:53:18.853Z,17.35
2022-09-21T08:55:46.220Z,17.49
2022-09-21T08:58:24.398Z,17.32
2022-09-21T09:01:24.463Z,17.18
2022-09-21T09:04:11.770Z,17.10
2022-09-21T09:06:54.016Z,16.84
2022-09-21T09:09:48.755Z,16.95
2022-09-21T09:12:30.984Z,17.02
2022-09-21T09:15:19.267Z,17.10
2022-09-21T09:17:46.480Z,16.97
2022-09-21T09:20:13.500Z,17.06
2022-09-21T09:22:46.033Z,16.88
2022-09-21T09:25:22.030Z,16.77
2022-09-21T09:27:59.337Z,16.94
2022-09-21T09:30:30.508Z,17.18
2022-09-21T09:33:11.663Z,17.34
2022-09-21T09:35:46.422Z,17.49
2022-09-21T09:38:27.955Z,17.74
2022-09-21T09:41:13.458Z,17.73
2022-09-21T09:46:52.680Z,17.88
2022-09-21T09:49:39.215Z,18.06
2022-09-21T09:52:11.480Z,18.16
2022-09-21T09:54:38.664Z,18.00
2022-09-21T09:57:07.623Z,17.98
2022-09-21T09:59:54.055Z,18.25
2022-09-21T10:02:24.699Z,18.26
2022-09-21T10:05:05.921Z,18.23
2022-09-21T10:07:42.573Z,18.29
2022-09-21T10:10:22.042Z,18.33
2022-09-21T10:12:50.798Z,18.25
2022-09-21T10:15:19.533Z,18.06
2022-09-21T10:17:48.128Z,18.15
2022-09-21T10:20:20.416Z,18.10
2022-09-21T10:22:54.310Z,18.07
2022-09-21T10:25:21.810Z,18.12
2022-09-21T10:27:51.795Z,18.07
2022-09-21T10:30:31.100Z,18.12
2022-09-21T10:32:59.394Z,18.23
2022-09-21T10:35:27.349Z,18.47
2022-09-21T10:38:10.988Z,18.70
2022-09-21T10:40:39.912Z,18.87
2022-09-21T10:43:43.809Z,18.50
2022-09-21T10:46:12.204Z,18.44
2022-09-21T10:48:39.334Z,18.61
2022-09-21T10:51:06.460Z,18.66
2022-09-21T10:53:37.460Z,18.82
2022-09-21T10:56:17.781Z,18.58
2022-09-21T10:59:24.058Z,18.33
2022-09-21T11:01:54.027Z,18.31
2022-09-21T11:04:39.412Z,18.37
2022-09-21T11:07:12.748Z,18.49
2022-09-21T11:09:57.475Z,18.36
2022-09-21T11:12:27.486Z,18.54
2022-09-21T11:15:16.217Z,18.66
2022-09-21T11:17:55.516Z,18.76
2022-09-21T11:20:32.233Z,18.67
2022-09-21T11:23:33.797Z,18.65
2022-09-21T11:26:28.212Z,18.71
2022-09-21T11:29:01.272Z,18.72
2022-09-21T11:32:06.788Z,18.96
2022-09-21T11:34:55.045Z,19.06
2022-09-21T11:37:44.078Z,19.08
2022-09-21T11:40:14.722Z,19.45
2022-09-21T11:42:53.664Z,19.42
2022-09-21T11:45:29.864Z,19.19
2022-09-21T11:47:59.892Z,18.85
2022-09-21T11:50:40.383Z,18.79
2022-09-21T11:53:22.705Z,18.79
2022-09-21T11:56:16.101Z,18.80
2022-09-21T11:58:43.092Z,18.82
2022-09-21T12:01:37.892Z,18.42
2022-09-21T12:04:05.010Z,18.38
2022-09-21T12:07:07.576Z,18.30
2022-09-21T12:09:37.691Z,18.58
2022-09-21T12:12:26.589Z,18.68
2022-09-21T12:14:54.148Z,19.05
2022-09-21T12:17:30.298Z,19.20
2022-09-21T12:20:02.358Z,19.54
2022-09-21T12:22:34.048Z,19.40
2022-09-21T12:25:21.565Z,19.03
2022-09-21T12:28:45.956Z,19.02
2022-09-21T12:31:31.943Z,18.97
2022-09-21T12:34:10.346Z,18.75
2022-09-21T12:36:54.916Z,18.25
2022-09-21T12:39:37.488Z,18.47
2022-09-21T12:42:22.789Z,18.97
2022-09-21T12:45:06.975Z,18.87
2022-09-21T12:47:58.211Z,19.23
2022-09-21T12:50:48.663Z,19.44
2022-09-21T12:53:22.430Z,19.23
2022-09-21T12:55:50.178Z,19.27
2022-09-21T12:59:05.785Z,19.29
2022-09-21T13:01:41.951Z,19.41
2022-09-21T13:04:38.706Z,19.19
2022-09-21T13:07:32.876Z,19.10
2022-09-21T13:10:28.622Z,19.21
2022-09-21T13:13:02.309Z,19.12
2022-09-21T13:15:41.674Z,19.39
2022-09-21T13:18:35.119Z,19.61
2022-09-21T13:21:17.339Z,19.70
2022-09-21T13:23:51.386Z,19.65
2022-09-21T13:26:40.238Z,19.27
2022-09-21T13:29:19.783Z,19.24
2022-09-21T13:32:00.364Z,19.23
2022-09-21T13:34:41.547Z,18.68
2022-09-21T13:37:11.794Z,18.55
2022-09-21T13:40:01.957Z,18.61
2022-09-21T13:42:32.393Z,18.61
2022-09-21T13:45:15.470Z,18.84
2022-09-21T13:47:47.811Z,18.91
2022-09-21T13:50:31.623Z,19.02
2022-09-21T13:53:04.284Z,18.96
2022-09-21T13:55:39.568Z,18.87
2022-09-21T13:58:24.897Z,18.97
2022-09-21T14:01:45.233Z,18.61
2022-09-21T14:04:21.034Z,18.65
2022-09-21T14:06:51.007Z,18.73
2022-09-21T14:09:27.592Z,18.85
2022-09-21T14:12:07.431Z,19.06
2022-09-21T14:14:41.524Z,18.93
2022-09-21T14:17:36.323Z,18.83
2022-09-21T14:20:07.198Z,18.99
2022-09-21T14:22:38.218Z,19.14
2022-09-21T14:25:30.244Z,18.99
2022-09-21T14:28:02.806Z,18.73
2022-09-21T14:30:34.635Z,18.66
2022-09-21T14:33:12.232Z,18.70
2022-09-21T14:35:45.838Z,18.59
2022-09-21T14:38:54.351Z,18.66
2022-09-21T14:41:25.164Z,18.57
2022-09-21T14:43:55.628Z,18.59
2022-09-21T14:46:40.651Z,18.82
2022-09-21T14:49:10.843Z,18.88
2022-09-21T14:51:45.369Z,18.96
2022-09-21T14:54:40.098Z,18.91
2022-09-21T14:57:45.874Z,19.00
2022-09-21T15:00:39.705Z,18.76
2022-09-21T15:03:49.064Z,18.69
2022-09-21T15:06:49.903Z,18.61
2022-09-21T15:10:14.764Z,18.22
2022-09-21T15:12:51.716Z,18.21
2022-09-21T15:15:31.126Z,18.30
2022-09-21T15:18:00.816Z,18.56
2022-09-21T15:20:30.487Z,18.54
2022-09-21T15:23:01.232Z,18.48
2022-09-21T15:25:32.383Z,18.16
2022-09-21T15:28:00.496Z,18.15
2022-09-21T15:30:29.642Z,18.12
2022-09-21T15:32:59.949Z,18.08
2022-09-21T15:35:29.485Z,18.26
2022-09-21T15:38:00.155Z,18.25
2022-09-21T15:40:34.041Z,18.28
2022-09-21T15:43:03.917Z,18.25
2022-09-21T15:45:45.901Z,18.14
2022-09-21T15:48:13.644Z,18.04
2022-09-21T15:50:43.241Z,17.98
2022-09-21T15:53:20.084Z,17.89
2022-09-21T15:55:48.450Z,18.00
2022-09-21T15:58:40.602Z,18.01
2022-09-21T16:01:15.169Z,17.91
2022-09-21T16:03:43.550Z,17.80
2022-09-21T16:06:38.956Z,17.66
2022-09-21T16:09:24.405Z,17.49
2022-09-21T16:11:53.429Z,17.41
2022-09-21T16:14:40.732Z,17.31
2022-09-21T16:17:13.995Z,17.47
2022-09-21T16:19:59.994Z,17.53
2022-09-21T16:22:38.773Z,17.42
2022-09-21T16:25:27.485Z,17.43
2022-09-21T16:28:04.811Z,17.42
2022-09-21T16:30:47.991Z,17.32
2022-09-21T16:33:46.315Z,17.11
2022-09-21T16:36:59.864Z,17.03
2022-09-21T16:39:27.549Z,16.94
2022-09-21T16:42:02.264Z,16.84
2022-09-21T16:44:34.441Z,17.02
2022-09-21T16:47:03.220Z,16.84
2022-09-21T16:49:35.787Z,16.83
2022-09-21T16:52:03.815Z,16.85
2022-09-21T16:54:30.922Z,16.85
2022-09-21T16:57:00.518Z,16.84
2022-09-21T16:59:28.394Z,16.85
2022-09-21T17:01:58.416Z,16.85
2022-09-21T17:04:28.854Z,16.92
2022-09-21T17:06:56.876Z,16.83
2022-09-21T17:09:28.983Z,16.55
2022-09-21T17:12:00.286Z,16.57
2022-09-21T17:14:35.197Z,16.46
2022-09-21T17:17:12.777Z,16.52
2022-09-21T17:19:42.168Z,16.45
2022-09-21T17:22:17.452Z,16.28
2022-09-21T17:24:52.143Z,16.21
2022-09-21T17:27:22.747Z,16.17
2022-09-21T17:29:50.668Z,15.92
2022-09-21T17:32:23.087Z,15.98
2022-09-21T17:35:15.777Z,16.08
2022-09-21T17:37:45.134Z,15.98
2022-09-21T17:40:13.108Z,16.00
2022-09-21T17:42:43.383Z,16.10
2022-09-21T17:45:53.709Z,16.15
2022-09-21T17:48:22.476Z,16.07
2022-09-21T17:50:50.152Z,15.89
2022-09-21T17:53:37.475Z,16.08
2022-09-21T17:56:20.549Z,16.07
2022-09-21T17:58:57.849Z,16.09
2022-09-21T18:01:24.936Z,16.05
2022-09-21T18:03:52.300Z,15.97
2022-09-21T18:06:19.746Z,15.81
2022-09-21T19:09:24.986Z,15.04
2022-09-21T19:15:42.249Z,14.16
2022-09-21T19:24:24.620Z,14.29
2022-09-21T19:27:21.182Z,14.72
2022-09-21T19:30:21.067Z,14.72
2022-09-21T19:33:00.183Z,14.65
2022-09-21T19:35:44.545Z,14.01
2022-09-21T19:38:24.022Z,13.40
2022-09-21T19:41:06.045Z,13.93
2022-09-21T19:44:02.451Z,15.68
2022-09-21T19:46:59.428Z,16.22
2022-09-21T19:49:48.271Z,18.18
2022-09-21T19:52:45.117Z,17.76
2022-09-21T19:55:42.274Z,18.76
2022-09-21T19:58:28.187Z,19.36
2022-09-21T20:00:56.863Z,19.55
2022-09-21T20:08:23.385Z,19.90
2022-09-21T20:11:26.497Z,19.55
2022-09-21T20:14:22.602Z,19.32
2022-09-21T20:16:59.605Z,18.58
2022-09-21T20:19:56.875Z,18.00
2022-09-21T20:22:43.828Z,17.52
2022-09-21T20:25:44.649Z,17.12
2022-09-21T20:28:20.737Z,16.43
2022-09-21T20:30:48.668Z,16.42
2022-09-21T20:33:21.463Z,16.28
2022-09-21T20:35:50.009Z,16.07
2022-09-21T20:38:18.508Z,15.79
2022-09-21T20:40:46.265Z,15.73
2022-09-21T20:43:16.302Z,15.59
2022-09-21T20:45:47.880Z,15.48
2022-09-21T20:48:15.757Z,15.23
2022-09-21T20:50:46.123Z,15.11
2022-09-21T20:53:13.457Z,14.85
2022-09-21T20:55:41.572Z,14.91
2022-09-21T20:58:12.918Z,14.86
2022-09-21T21:00:40.364Z,14.73
2022-09-21T21:03:07.506Z,14.59
2022-09-21T21:05:34.690Z,14.73
2022-09-21T21:08:03.431Z,14.57
2022-09-21T21:10:31.744Z,14.58
2022-09-21T21:12:59.305Z,14.50
2022-09-21T21:15:26.524Z,14.03
2022-09-21T21:17:53.895Z,13.71
2022-09-21T21:20:22.277Z,14.26
2022-09-21T21:22:51.536Z,14.25
2022-09-21T21:25:18.841Z,14.24
2022-09-21T21:27:45.987Z,13.90
2022-09-21T21:30:13.328Z,13.95
2022-09-21T21:32:40.591Z,14.07
2022-09-21T21:35:08.172Z,14.03
2022-09-21T21:37:35.464Z,13.58
2022-09-21T21:40:03.860Z,13.96
2022-09-21T21:42:31.165Z,13.51
2022-09-21T21:44:58.229Z,13.61
2022-09-21T21:47:39.322Z,13.64
2022-09-21T21:50:07.634Z,13.48
2022-09-21T21:52:34.895Z,13.40
2022-09-21T21:55:02.544Z,13.09
2022-09-21T21:57:29.960Z,13.19
2022-09-21T22:00:15.673Z,12.98
2022-09-21T22:02:42.844Z,13.39
2022-09-21T22:05:10.074Z,13.05
2022-09-21T22:07:37.880Z,13.33
2022-09-21T22:10:05.534Z,13.28
2022-09-21T22:12:33.141Z,13.28
2022-09-21T22:15:00.239Z,13.01
2022-09-21T22:17:27.216Z,13.32
2022-09-21T22:19:55.859Z,13.33
2022-09-21T22:22:23.041Z,13.27
2022-09-21T22:24:50.263Z,13.24
2022-09-21T22:27:17.427Z,13.14
2022-09-21T22:29:45.007Z,13.21
2022-09-21T22:32:12.132Z,13.33
2022-09-21T22:34:39.239Z,13.27
2022-09-21T22:37:06.405Z,13.27
2022-09-21T22:39:33.575Z,13.26
2022-09-21T22:42:01.569Z,12.93
2022-09-21T22:44:28.644Z,13.24
2022-09-21T22:46:55.883Z,13.07
2022-09-21T22:49:23.034Z,13.24
2022-09-21T22:51:50.204Z,13.19
2022-09-21T22:54:17.246Z,13.25
2022-09-21T22:56:44.468Z,13.14
2022-09-21T22:59:11.500Z,13.28
2022-09-21T23:01:40.242Z,13.29
2022-09-21T23:04:13.315Z,12.96
2022-09-21T23:06:42.836Z,13.10
2022-09-21T23:09:18.607Z,13.15
2022-09-21T23:11:48.573Z,13.18
2022-09-21T23:14:17.242Z,13.13
2022-09-21T23:16:44.821Z,13.11
2022-09-21T23:19:16.034Z,13.03
2022-09-21T23:21:46.864Z,13.08
2022-09-21T23:24:13.935Z,12.36
2022-09-21T23:26:41.413Z,12.95
2022-09-21T23:29:14.754Z,13.08
2022-09-21T23:31:45.341Z,13.05
2022-09-21T23:34:14.239Z,12.67
2022-09-21T23:36:42.091Z,12.95
2022-09-21T23:39:12.019Z,12.92
2022-09-21T23:41:39.580Z,12.33
2022-09-21T23:44:07.214Z,12.27
2022-09-21T23:46:36.916Z,12.85
2022-09-21T23:49:04.448Z,12.81
2022-09-21T23:51:31.812Z,12.49
2022-09-21T23:53:59.967Z,12.62
2022-09-21T23:56:28.586Z,12.79
2022-09-21T23:58:56.343Z,12.73
